sensor_id;sensor_type;location;lat;lon;timestamp;pressure;altitude;pressure_sealevel;temperature;humidity
4410;BME280;2218;51.408;7.208;2023-02-18T00:01:11;100328.53;;;19.91;46.91
4410;BME280;2218;51.408;7.208;2023-02-18T00:03:39;100332.00;;;19.91;47.10
4410;BME280;2218;51.408;7.208;2023-02-18T00:06:12;100329.38;;;19.91;47.72
4410;BME280;2218;51.408;7.208;2023-02-18T00:08:40;100342.56;;;19.91;47.32
4410;BME280;2218;51.408;7.208;2023-02-18T00:11:08;100338.31;;;19.88;47.33
4410;BME280;2218;51.408;7.208;2023-02-18T00:13:36;100346.22;;;19.88;47.29
4410;BME280;2218;51.408;7.208;2023-02-18T00:16:04;100336.63;;;19.87;47.28
4410;BME280;2218;51.408;7.208;2023-02-18T00:18:34;100338.41;;;19.87;47.30
4410;BME280;2218;51.408;7.208;2023-02-18T00:21:03;100337.56;;;19.86;47.32
4410;BME280;2218;51.408;7.208;2023-02-18T00:23:31;100332.28;;;19.86;47.31
4410;BME280;2218;51.408;7.208;2023-02-18T00:26:00;100337.56;;;19.86;47.35
4410;BME280;2218;51.408;7.208;2023-02-18T00:28:27;100330.59;;;19.85;47.41
4410;BME280;2218;51.408;7.208;2023-02-18T00:30:54;100327.03;;;19.86;47.31
4410;BME280;2218;51.408;7.208;2023-02-18T00:33:22;100318.38;;;19.84;47.13
4410;BME280;2218;51.408;7.208;2023-02-18T00:35:51;100324.38;;;19.86;47.13
4410;BME280;2218;51.408;7.208;2023-02-18T00:38:18;100314.78;;;19.85;47.36
4410;BME280;2218;51.408;7.208;2023-02-18T00:40:46;100306.94;;;19.84;47.32
4410;BME280;2218;51.408;7.208;2023-02-18T00:43:14;100295.53;;;19.83;47.23
4410;BME280;2218;51.408;7.208;2023-02-18T00:45:40;100299.03;;;19.84;47.24
4410;BME280;2218;51.408;7.208;2023-02-18T00:48:07;100293.75;;;19.84;47.24
4410;BME280;2218;51.408;7.208;2023-02-18T00:50:34;100299.13;;;19.82;47.41
4410;BME280;2218;51.408;7.208;2023-02-18T00:53:02;100302.72;;;19.81;47.46
4410;BME280;2218;51.408;7.208;2023-02-18T00:55:29;100301.88;;;19.81;47.31
4410;BME280;2218;51.408;7.208;2023-02-18T00:57:57;100300.19;;;19.80;47.48
4410;BME280;2218;51.408;7.208;2023-02-18T01:00:23;100280.88;;;19.79;47.30
4410;BME280;2218;51.408;7.208;2023-02-18T01:02:51;100280.88;;;19.79;47.44
4410;BME280;2218;51.408;7.208;2023-02-18T01:05:19;100282.63;;;19.79;47.53
4410;BME280;2218;51.408;7.208;2023-02-18T01:07:46;100280.00;;;19.79;47.30
4410;BME280;2218;51.408;7.208;2023-02-18T01:10:15;100276.53;;;19.78;47.42
4410;BME280;2218;51.408;7.208;2023-02-18T01:12:42;100273.03;;;19.78;47.44
4410;BME280;2218;51.408;7.208;2023-02-18T01:15:13;100269.56;;;19.77;47.41
4410;BME280;2218;51.408;7.208;2023-02-18T01:17:40;100268.72;;;19.77;47.38
4410;BME280;2218;51.408;7.208;2023-02-18T01:20:09;100284.53;;;19.77;47.45
4410;BME280;2218;51.408;7.208;2023-02-18T01:22:37;100285.38;;;19.77;47.51
4410;BME280;2218;51.408;7.208;2023-02-18T01:25:07;100281.91;;;19.77;47.63
4410;BME280;2218;51.408;7.208;2023-02-18T01:27:37;100278.41;;;19.76;47.46
4410;BME280;2218;51.408;7.208;2023-02-18T01:30:07;100285.50;;;19.76;47.52
4410;BME280;2218;51.408;7.208;2023-02-18T01:32:35;100282.00;;;19.75;47.44
4410;BME280;2218;51.408;7.208;2023-02-18T01:35:04;100280.31;;;19.74;47.48
4410;BME280;2218;51.408;7.208;2023-02-18T01:37:31;100288.22;;;19.74;47.47
4410;BME280;2218;51.408;7.208;2023-02-18T01:39:58;100269.78;;;19.74;47.53
4410;BME280;2218;51.408;7.208;2023-02-18T01:42:28;100258.34;;;19.74;47.57
4410;BME280;2218;51.408;7.208;2023-02-18T01:48:21;100248.84;;;19.71;47.70
4410;BME280;2218;51.408;7.208;2023-02-18T01:50:56;100241.69;;;19.73;47.62
4410;BME280;2218;51.408;7.208;2023-02-18T01:53:28;100249.69;;;19.72;47.75
4410;BME280;2218;51.408;7.208;2023-02-18T01:55:58;100255.06;;;19.70;47.60
4410;BME280;2218;51.408;7.208;2023-02-18T01:58:26;100256.88;;;19.70;47.58
4410;BME280;2218;51.408;7.208;2023-02-18T02:00:53;100252.44;;;19.70;47.66
4410;BME280;2218;51.408;7.208;2023-02-18T02:03:21;100248.00;;;19.71;47.43
4410;BME280;2218;51.408;7.208;2023-02-18T02:05:48;100248.00;;;19.71;47.67
4410;BME280;2218;51.408;7.208;2023-02-18T02:08:15;100241.13;;;19.68;47.58
4410;BME280;2218;51.408;7.208;2023-02-18T02:11:01;100247.34;;;19.67;47.65
4410;BME280;2218;51.408;7.208;2023-02-18T02:13:47;100249.03;;;19.68;47.63
4410;BME280;2218;51.408;7.208;2023-02-18T02:16:27;100242.06;;;19.67;47.42
4410;BME280;2218;51.408;7.208;2023-02-18T02:25:18;100239.44;;;19.67;47.76
4410;BME280;2218;51.408;7.208;2023-02-18T02:28:32;100236.06;;;19.65;47.72
4410;BME280;2218;51.408;7.208;2023-02-18T02:31:57;100227.31;;;19.65;47.77
4410;BME280;2218;51.408;7.208;2023-02-18T02:34:50;100227.31;;;19.65;47.79
4410;BME280;2218;51.408;7.208;2023-02-18T02:37:27;100223.78;;;19.64;47.80
4410;BME280;2218;51.408;7.208;2023-02-18T02:40:16;100222.09;;;19.63;47.85
4410;BME280;2218;51.408;7.208;2023-02-18T02:43:01;100210.59;;;19.64;47.71
4410;BME280;2218;51.408;7.208;2023-02-18T02:45:46;100207.97;;;19.64;47.77
4410;BME280;2218;51.408;7.208;2023-02-18T02:48:24;100207.25;;;19.62;47.82
4410;BME280;2218;51.408;7.208;2023-02-18T02:51:03;100208.09;;;19.62;47.67
4410;BME280;2218;51.408;7.208;2023-02-18T02:53:35;100209.88;;;19.62;47.78
4410;BME280;2218;51.408;7.208;2023-02-18T02:56:03;100212.50;;;19.62;47.71
4410;BME280;2218;51.408;7.208;2023-02-18T02:58:30;100210.81;;;19.61;47.68
4410;BME280;2218;51.408;7.208;2023-02-18T03:01:19;100204.72;;;19.60;47.98
4410;BME280;2218;51.408;7.208;2023-02-18T03:04:09;100198.63;;;19.58;47.67
4410;BME280;2218;51.408;7.208;2023-02-18T03:07:10;100195.94;;;19.60;47.76
4410;BME280;2218;51.408;7.208;2023-02-18T03:10:04;100196.00;;;19.58;47.76
4410;BME280;2218;51.408;7.208;2023-02-18T03:12:46;100188.03;;;19.60;47.75
4410;BME280;2218;51.408;7.208;2023-02-18T03:15:23;100183.66;;;19.59;47.74
4410;BME280;2218;51.408;7.208;2023-02-18T03:18:01;100170.59;;;19.57;47.82
4410;BME280;2218;51.408;7.208;2023-02-18T03:20:35;100157.41;;;19.57;47.93
4410;BME280;2218;51.408;7.208;2023-02-18T03:23:10;100151.28;;;19.57;47.85
4410;BME280;2218;51.408;7.208;2023-02-18T03:25:42;100151.28;;;19.57;47.70
4410;BME280;2218;51.408;7.208;2023-02-18T03:28:13;100153.91;;;19.57;47.76
4410;BME280;2218;51.408;7.208;2023-02-18T03:30:45;100145.91;;;19.58;47.84
4410;BME280;2218;51.408;7.208;2023-02-18T03:33:21;100138.84;;;19.59;47.58
4410;BME280;2218;51.408;7.208;2023-02-18T03:35:50;100132.69;;;19.60;47.64
4410;BME280;2218;51.408;7.208;2023-02-18T03:38:23;100133.53;;;19.60;47.57
4410;BME280;2218;51.408;7.208;2023-02-18T03:40:51;100130.03;;;19.60;47.77
4410;BME280;2218;51.408;7.208;2023-02-18T03:43:19;100130.03;;;19.60;47.59
4410;BME280;2218;51.408;7.208;2023-02-18T03:45:46;100137.00;;;19.61;47.75
4410;BME280;2218;51.408;7.208;2023-02-18T03:48:12;100127.28;;;19.61;47.58
4410;BME280;2218;51.408;7.208;2023-02-18T03:50:39;100129.09;;;19.61;47.73
4410;BME280;2218;51.408;7.208;2023-02-18T03:53:06;100127.28;;;19.61;47.74
4410;BME280;2218;51.408;7.208;2023-02-18T03:55:34;100122.03;;;19.61;47.59
4410;BME280;2218;51.408;7.208;2023-02-18T03:58:01;100109.78;;;19.60;47.75
4410;BME280;2218;51.408;7.208;2023-02-18T04:00:28;100115.91;;;19.61;47.87
4410;BME280;2218;51.408;7.208;2023-02-18T04:02:55;100117.59;;;19.62;47.64
4410;BME280;2218;51.408;7.208;2023-02-18T04:05:22;100117.69;;;19.60;47.72
4410;BME280;2218;51.408;7.208;2023-02-18T04:07:49;100115.91;;;19.61;47.67
4410;BME280;2218;51.408;7.208;2023-02-18T04:10:16;100102.72;;;19.61;47.84
4410;BME280;2218;51.408;7.208;2023-02-18T04:12:44;100108.00;;;19.61;47.74
4410;BME280;2218;51.408;7.208;2023-02-18T04:15:11;100095.66;;;19.61;47.82
4410;BME280;2218;51.408;7.208;2023-02-18T04:17:38;100106.19;;;19.61;47.91
4410;BME280;2218;51.408;7.208;2023-02-18T04:20:07;100103.69;;;19.60;47.85
4410;BME280;2218;51.408;7.208;2023-02-18T04:22:34;100104.41;;;19.62;47.91
4410;BME280;2218;51.408;7.208;2023-02-18T04:25:01;100095.66;;;19.61;48.14
4410;BME280;2218;51.408;7.208;2023-02-18T04:27:27;100094.81;;;19.61;47.87
4410;BME280;2218;51.408;7.208;2023-02-18T04:29:56;100088.69;;;19.60;47.67
4410;BME280;2218;51.408;7.208;2023-02-18T04:32:23;100086.91;;;19.61;47.95
4410;BME280;2218;51.408;7.208;2023-02-18T04:34:50;100086.91;;;19.61;48.00
4410;BME280;2218;51.408;7.208;2023-02-18T04:37:17;100083.44;;;19.60;47.98
4410;BME280;2218;51.408;7.208;2023-02-18T04:39:43;100071.09;;;19.61;47.80
4410;BME280;2218;51.408;7.208;2023-02-18T04:42:10;100072.03;;;19.60;47.80
4410;BME280;2218;51.408;7.208;2023-02-18T04:44:37;100060.53;;;19.61;48.03
4410;BME280;2218;51.408;7.208;2023-02-18T04:47:06;100058.84;;;19.60;48.04
4410;BME280;2218;51.408;7.208;2023-02-18T04:49:33;100056.22;;;19.60;47.96
4410;BME280;2218;51.408;7.208;2023-02-18T04:52:00;100046.50;;;19.60;47.89
4410;BME280;2218;51.408;7.208;2023-02-18T04:54:28;100047.34;;;19.61;47.91
4410;BME280;2218;51.408;7.208;2023-02-18T04:56:55;100046.50;;;19.60;48.17
4410;BME280;2218;51.408;7.208;2023-02-18T04:59:22;100048.31;;;19.60;48.04
4410;BME280;2218;51.408;7.208;2023-02-18T05:01:49;100045.66;;;19.60;48.12
4410;BME280;2218;51.408;7.208;2023-02-18T05:04:18;100035.13;;;19.60;48.16
4410;BME280;2218;51.408;7.208;2023-02-18T05:06:45;100037.75;;;19.60;47.89
4410;BME280;2218;51.408;7.208;2023-02-18T05:09:13;100029.84;;;19.60;48.14
4410;BME280;2218;51.408;7.208;2023-02-18T05:11:40;100024.56;;;19.60;48.17
4410;BME280;2218;51.408;7.208;2023-02-18T05:14:07;100029.84;;;19.60;47.97
4410;BME280;2218;51.408;7.208;2023-02-18T05:16:34;100022.84;;;19.59;48.02
4410;BME280;2218;51.408;7.208;2023-02-18T05:19:01;100024.56;;;19.60;47.97
4410;BME280;2218;51.408;7.208;2023-02-18T05:21:29;100014.91;;;19.59;47.97
4410;BME280;2218;51.408;7.208;2023-02-18T05:23:57;100017.50;;;19.60;48.16
4410;BME280;2218;51.408;7.208;2023-02-18T05:26:24;100016.66;;;19.60;48.08
4410;BME280;2218;51.408;7.208;2023-02-18T05:28:51;99997.38;;;19.59;48.23
4410;BME280;2218;51.408;7.208;2023-02-18T05:31:18;100001.75;;;19.59;48.15
4410;BME280;2218;51.408;7.208;2023-02-18T05:33:45;100007.00;;;19.59;48.08
4410;BME280;2218;51.408;7.208;2023-02-18T05:36:12;99996.47;;;19.59;48.22
4410;BME280;2218;51.408;7.208;2023-02-18T05:38:40;99996.47;;;19.59;48.12
4410;BME280;2218;51.408;7.208;2023-02-18T05:41:07;99992.09;;;19.59;48.25
4410;BME280;2218;51.408;7.208;2023-02-18T05:43:34;99982.41;;;19.60;48.17
4410;BME280;2218;51.408;7.208;2023-02-18T05:46:22;99971.84;;;19.60;48.23
4410;BME280;2218;51.408;7.208;2023-02-18T05:48:49;99975.38;;;19.59;48.20
4410;BME280;2218;51.408;7.208;2023-02-18T05:51:16;99971.00;;;19.59;48.08
4410;BME280;2218;51.408;7.208;2023-02-18T05:53:44;99975.38;;;19.59;48.14
4410;BME280;2218;51.408;7.208;2023-02-18T05:56:11;99970.09;;;19.59;48.37
4410;BME280;2218;51.408;7.208;2023-02-18T05:58:38;99959.56;;;19.59;48.20
4410;BME280;2218;51.408;7.208;2023-02-18T06:01:05;99956.91;;;19.59;48.25
4410;BME280;2218;51.408;7.208;2023-02-18T06:03:32;99956.06;;;19.58;48.25
4410;BME280;2218;51.408;7.208;2023-02-18T06:05:59;99956.91;;;19.59;48.26
4410;BME280;2218;51.408;7.208;2023-02-18T06:08:26;99959.56;;;19.59;48.29
4410;BME280;2218;51.408;7.208;2023-02-18T06:10:54;99959.56;;;19.59;48.18
4410;BME280;2218;51.408;7.208;2023-02-18T06:13:21;99959.56;;;19.59;48.09
4410;BME280;2218;51.408;7.208;2023-02-18T06:15:49;99955.19;;;19.59;48.30
4410;BME280;2218;51.408;7.208;2023-02-18T06:18:17;99964.00;;;19.58;48.08
4410;BME280;2218;51.408;7.208;2023-02-18T06:20:46;99959.56;;;19.59;48.18
4410;BME280;2218;51.408;7.208;2023-02-18T06:23:13;99964.81;;;19.59;48.16
4410;BME280;2218;51.408;7.208;2023-02-18T06:25:40;99947.31;;;19.58;48.35
4410;BME280;2218;51.408;7.208;2023-02-18T06:28:09;99945.53;;;19.58;48.22
4410;BME280;2218;51.408;7.208;2023-02-18T06:30:36;99936.78;;;19.58;48.35
4410;BME280;2218;51.408;7.208;2023-02-18T06:33:03;99938.47;;;19.59;48.49
4410;BME280;2218;51.408;7.208;2023-02-18T06:35:30;99942.06;;;19.58;48.30
4410;BME280;2218;51.408;7.208;2023-02-18T06:37:57;99943.84;;;19.57;48.03
4410;BME280;2218;51.408;7.208;2023-02-18T06:40:25;99937.63;;;19.58;48.30
4410;BME280;2218;51.408;7.208;2023-02-18T06:42:52;99944.69;;;19.58;48.33
4410;BME280;2218;51.408;7.208;2023-02-18T06:45:21;99943.84;;;19.57;48.26
4410;BME280;2218;51.408;7.208;2023-02-18T06:47:48;99941.22;;;19.57;48.25
4410;BME280;2218;51.408;7.208;2023-02-18T06:50:15;99951.75;;;19.57;48.40
4410;BME280;2218;51.408;7.208;2023-02-18T06:52:44;99943.84;;;19.57;48.32
4410;BME280;2218;51.408;7.208;2023-02-18T06:55:11;99939.41;;;19.58;48.35
4410;BME280;2218;51.408;7.208;2023-02-18T06:57:38;99945.66;;;19.57;48.31
4410;BME280;2218;51.408;7.208;2023-02-18T07:00:07;99951.75;;;19.57;48.40
4410;BME280;2218;51.408;7.208;2023-02-18T07:02:36;99952.59;;;19.58;48.42
4410;BME280;2218;51.408;7.208;2023-02-18T07:05:04;99952.59;;;19.58;48.34
4410;BME280;2218;51.408;7.208;2023-02-18T07:07:33;99943.84;;;19.57;48.40
4410;BME280;2218;51.408;7.208;2023-02-18T07:10:00;99937.72;;;19.57;48.46
4410;BME280;2218;51.408;7.208;2023-02-18T07:12:27;99941.22;;;19.57;48.25
4410;BME280;2218;51.408;7.208;2023-02-18T07:14:54;99944.81;;;19.56;48.39
4410;BME280;2218;51.408;7.208;2023-02-18T07:17:21;99935.09;;;19.57;48.27
4410;BME280;2218;51.408;7.208;2023-02-18T07:19:49;99929.81;;;19.57;48.33
4410;BME280;2218;51.408;7.208;2023-02-18T07:22:16;99938.56;;;19.57;48.43
4410;BME280;2218;51.408;7.208;2023-02-18T07:24:43;99932.47;;;19.57;48.33
4410;BME280;2218;51.408;7.208;2023-02-18T07:27:10;99937.72;;;19.57;48.39
4410;BME280;2218;51.408;7.208;2023-02-18T07:29:37;99939.53;;;19.56;48.34
4410;BME280;2218;51.408;7.208;2023-02-18T07:32:04;99948.41;;;19.55;48.53
4410;BME280;2218;51.408;7.208;2023-02-18T07:34:31;99957.16;;;19.56;48.42
4410;BME280;2218;51.408;7.208;2023-02-18T07:36:59;99953.56;;;19.57;48.50
4410;BME280;2218;51.408;7.208;2023-02-18T07:39:26;99960.63;;;19.56;48.48
4410;BME280;2218;51.408;7.208;2023-02-18T07:41:54;99965.91;;;19.56;48.52
4410;BME280;2218;51.408;7.208;2023-02-18T07:44:22;99965.06;;;19.56;48.53
4410;BME280;2218;51.408;7.208;2023-02-18T07:46:52;99965.06;;;19.56;48.56
4410;BME280;2218;51.408;7.208;2023-02-18T07:49:19;99962.41;;;19.56;48.51
4410;BME280;2218;51.408;7.208;2023-02-18T07:51:46;99958.94;;;19.55;48.59
4410;BME280;2218;51.408;7.208;2023-02-18T07:54:15;99964.22;;;19.55;48.29
4410;BME280;2218;51.408;7.208;2023-02-18T07:56:43;99967.69;;;19.56;48.35
4410;BME280;2218;51.408;7.208;2023-02-18T07:59:10;99967.81;;;19.54;48.49
4410;BME280;2218;51.408;7.208;2023-02-18T08:01:37;99975.59;;;19.56;48.26
4410;BME280;2218;51.408;7.208;2023-02-18T08:04:05;99974.75;;;19.55;48.51
4410;BME280;2218;51.408;7.208;2023-02-18T08:06:36;99975.59;;;19.56;48.35
4410;BME280;2218;51.408;7.208;2023-02-18T08:09:05;99979.19;;;19.55;48.35
4410;BME280;2218;51.408;7.208;2023-02-18T08:11:34;99997.53;;;19.56;48.49
4410;BME280;2218;51.408;7.208;2023-02-18T08:14:01;100000.28;;;19.55;48.31
4410;BME280;2218;51.408;7.208;2023-02-18T08:16:28;99997.63;;;19.55;48.37
4410;BME280;2218;51.408;7.208;2023-02-18T08:18:55;99989.63;;;19.56;48.51
4410;BME280;2218;51.408;7.208;2023-02-18T08:21:24;99990.56;;;19.55;48.37
4410;BME280;2218;51.408;7.208;2023-02-18T08:23:52;99979.19;;;19.55;48.56
4410;BME280;2218;51.408;7.208;2023-02-18T08:26:20;99975.59;;;19.56;48.28
4410;BME280;2218;51.408;7.208;2023-02-18T08:28:48;99983.50;;;19.56;48.42
4410;BME280;2218;51.408;7.208;2023-02-18T08:31:18;99984.34;;;19.56;48.48
4410;BME280;2218;51.408;7.208;2023-02-18T08:33:45;99980.88;;;19.56;48.17
4410;BME280;2218;51.408;7.208;2023-02-18T08:36:13;99986.13;;;19.56;48.24
4410;BME280;2218;51.408;7.208;2023-02-18T08:38:40;99988.66;;;19.57;48.21
4410;BME280;2218;51.408;7.208;2023-02-18T08:41:08;99982.56;;;19.57;48.38
4410;BME280;2218;51.408;7.208;2023-02-18T08:43:36;99993.09;;;19.57;48.50
4410;BME280;2218;51.408;7.208;2023-02-18T08:46:05;99983.50;;;19.56;48.35
4410;BME280;2218;51.408;7.208;2023-02-18T08:48:32;99986.13;;;19.56;48.35
4410;BME280;2218;51.408;7.208;2023-02-18T08:50:59;99980.03;;;19.55;48.18
4410;BME280;2218;51.408;7.208;2023-02-18T08:53:26;99980.88;;;19.56;48.39
4410;BME280;2218;51.408;7.208;2023-02-18T08:55:53;99986.13;;;19.56;48.18
4410;BME280;2218;51.408;7.208;2023-02-18T08:58:20;99982.66;;;19.55;48.25
4410;BME280;2218;51.408;7.208;2023-02-18T09:00:47;99995.84;;;19.55;48.33
4410;BME280;2218;51.408;7.208;2023-02-18T09:03:15;99991.41;;;19.56;48.44
4410;BME280;2218;51.408;7.208;2023-02-18T09:05:42;100001.97;;;19.56;48.46
4410;BME280;2218;51.408;7.208;2023-02-18T09:08:09;99982.66;;;19.55;48.33
4410;BME280;2218;51.408;7.208;2023-02-18T09:10:36;99988.88;;;19.54;48.34
4410;BME280;2218;51.408;7.208;2023-02-18T09:13:04;99990.56;;;19.55;48.32
4410;BME280;2218;51.408;7.208;2023-02-18T09:15:31;99974.75;;;19.55;48.34
4410;BME280;2218;51.408;7.208;2023-02-18T09:17:58;99980.97;;;19.54;48.33
4410;BME280;2218;51.408;7.208;2023-02-18T09:20:27;99985.38;;;19.54;48.29
4410;BME280;2218;51.408;7.208;2023-02-18T09:22:54;99984.47;;;19.55;48.19
4410;BME280;2218;51.408;7.208;2023-02-18T09:25:22;99987.09;;;19.55;48.25
4410;BME280;2218;51.408;7.208;2023-02-18T09:27:50;99977.47;;;19.54;48.33
4410;BME280;2218;51.408;7.208;2023-02-18T09:30:17;99981.91;;;19.53;48.34
4410;BME280;2218;51.408;7.208;2023-02-18T09:32:44;99999.44;;;19.54;48.25
4410;BME280;2218;51.408;7.208;2023-02-18T09:35:10;99998.56;;;19.54;48.33
4410;BME280;2218;51.408;7.208;2023-02-18T09:37:39;99991.59;;;19.53;48.02
4410;BME280;2218;51.408;7.208;2023-02-18T09:40:09;99996.88;;;19.53;48.22
4410;BME280;2218;51.408;7.208;2023-02-18T09:42:46;99995.09;;;19.53;48.18
4410;BME280;2218;51.408;7.208;2023-02-18T09:45:13;99991.59;;;19.53;48.13
4410;BME280;2218;51.408;7.208;2023-02-18T09:47:43;99986.34;;;19.53;48.10
4410;BME280;2218;51.408;7.208;2023-02-18T09:50:18;99983.69;;;19.53;48.25
4410;BME280;2218;51.408;7.208;2023-02-18T09:52:47;99978.44;;;19.53;47.95
4410;BME280;2218;51.408;7.208;2023-02-18T09:55:19;99975.78;;;19.53;48.27
4410;BME280;2218;51.408;7.208;2023-02-18T09:57:50;99982.84;;;19.52;48.12
4410;BME280;2218;51.408;7.208;2023-02-18T10:00:22;99984.66;;;19.52;47.95
4410;BME280;2218;51.408;7.208;2023-02-18T10:02:57;99984.66;;;19.52;48.15
4410;BME280;2218;51.408;7.208;2023-02-18T10:05:27;99984.66;;;19.52;47.97
4410;BME280;2218;51.408;7.208;2023-02-18T10:08:01;99984.66;;;19.52;47.75
4410;BME280;2218;51.408;7.208;2023-02-18T10:10:38;99984.66;;;19.52;47.87
4410;BME280;2218;51.408;7.208;2023-02-18T10:13:13;99976.75;;;19.52;47.83
4410;BME280;2218;51.408;7.208;2023-02-18T10:15:42;99974.09;;;19.52;47.90
4410;BME280;2218;51.408;7.208;2023-02-18T10:18:27;99968.84;;;19.52;47.77
4410;BME280;2218;51.408;7.208;2023-02-18T10:21:04;99963.56;;;19.52;47.88
4410;BME280;2218;51.408;7.208;2023-02-18T10:23:36;99979.38;;;19.52;47.55
4410;BME280;2218;51.408;7.208;2023-02-18T10:26:11;99976.75;;;19.52;47.72
4410;BME280;2218;51.408;7.208;2023-02-18T10:28:40;99974.94;;;19.52;47.73
4410;BME280;2218;51.408;7.208;2023-02-18T10:31:12;99982.00;;;19.52;47.71
4410;BME280;2218;51.408;7.208;2023-02-18T10:33:46;99974.94;;;19.52;47.69
4410;BME280;2218;51.408;7.208;2023-02-18T10:36:24;99980.22;;;19.52;47.67
4410;BME280;2218;51.408;7.208;2023-02-18T10:42:22;99984.66;;;19.52;47.69
4410;BME280;2218;51.408;7.208;2023-02-18T10:45:05;99984.66;;;19.52;47.81
4410;BME280;2218;51.408;7.208;2023-02-18T10:47:40;99994.25;;;19.53;47.55
4410;BME280;2218;51.408;7.208;2023-02-18T10:50:12;99997.81;;;19.52;47.69
4410;BME280;2218;51.408;7.208;2023-02-18T10:52:48;99996.88;;;19.53;47.56
4410;BME280;2218;51.408;7.208;2023-02-18T10:55:18;100005.75;;;19.52;47.53
4410;BME280;2218;51.408;7.208;2023-02-18T10:57:59;99991.59;;;19.53;47.45
4410;BME280;2218;51.408;7.208;2023-02-18T11:00:33;100000.47;;;19.52;47.77
4410;BME280;2218;51.408;7.208;2023-02-18T11:03:15;100011.00;;;19.52;47.57
4410;BME280;2218;51.408;7.208;2023-02-18T11:05:44;100002.25;;;19.51;47.32
4410;BME280;2218;51.408;7.208;2023-02-18T11:08:18;100010.16;;;19.51;47.48
4410;BME280;2218;51.408;7.208;2023-02-18T11:10:48;100009.31;;;19.51;47.51
4410;BME280;2218;51.408;7.208;2023-02-18T11:13:24;100019.88;;;19.51;47.61
4410;BME280;2218;51.408;7.208;2023-02-18T11:15:58;100021.56;;;19.52;47.67
4410;BME280;2218;51.408;7.208;2023-02-18T11:18:37;100024.19;;;19.52;47.56
4410;BME280;2218;51.408;7.208;2023-02-18T11:21:20;100019.88;;;19.51;47.92
4410;BME280;2218;51.408;7.208;2023-02-18T11:23:53;100019.88;;;19.51;47.75
4410;BME280;2218;51.408;7.208;2023-02-18T11:26:28;100022.50;;;19.51;47.55
4410;BME280;2218;51.408;7.208;2023-02-18T11:29:01;100014.59;;;19.51;47.05
4410;BME280;2218;51.408;7.208;2023-02-18T11:31:41;100020.72;;;19.51;47.46
4410;BME280;2218;51.408;7.208;2023-02-18T11:34:16;100014.59;;;19.51;47.46
4410;BME280;2218;51.408;7.208;2023-02-18T11:36:46;100009.31;;;19.51;47.41
4410;BME280;2218;51.408;7.208;2023-02-18T11:39:20;99997.81;;;19.52;47.59
4410;BME280;2218;51.408;7.208;2023-02-18T11:41:57;100011.97;;;19.51;47.57
4410;BME280;2218;51.408;7.208;2023-02-18T11:44:30;100006.69;;;19.51;47.17
4410;BME280;2218;51.408;7.208;2023-02-18T11:47:01;100004.91;;;19.51;47.49
4410;BME280;2218;51.408;7.208;2023-02-18T11:49:30;99992.66;;;19.50;47.54
4410;BME280;2218;51.408;7.208;2023-02-18T11:52:17;100003.22;;;19.50;47.46
4410;BME280;2218;51.408;7.208;2023-02-18T11:55:00;100008.47;;;19.50;47.55
4410;BME280;2218;51.408;7.208;2023-02-18T11:57:30;100015.56;;;19.50;47.56
4410;BME280;2218;51.408;7.208;2023-02-18T11:59:59;100012.91;;;19.50;47.67
4410;BME280;2218;51.408;7.208;2023-02-18T12:02:32;100007.63;;;19.50;47.68
4410;BME280;2218;51.408;7.208;2023-02-18T12:05:04;100009.31;;;19.51;47.59
4410;BME280;2218;51.408;7.208;2023-02-18T12:07:44;100009.31;;;19.51;47.61
4410;BME280;2218;51.408;7.208;2023-02-18T12:10:19;100007.53;;;19.51;47.72
4410;BME280;2218;51.408;7.208;2023-02-18T12:12:57;100011.00;;;19.52;47.54
4410;BME280;2218;51.408;7.208;2023-02-18T12:15:42;100005.75;;;19.52;47.73
4410;BME280;2218;51.408;7.208;2023-02-18T12:18:52;100008.38;;;19.52;47.49
4410;BME280;2218;51.408;7.208;2023-02-18T12:21:37;100007.53;;;19.51;47.70
4410;BME280;2218;51.408;7.208;2023-02-18T12:24:30;100014.59;;;19.51;47.64
4410;BME280;2218;51.408;7.208;2023-02-18T12:27:11;100014.59;;;19.51;47.47
4410;BME280;2218;51.408;7.208;2023-02-18T12:30:13;100015.56;;;19.50;47.65
4410;BME280;2218;51.408;7.208;2023-02-18T12:32:55;100015.44;;;19.51;47.58
4410;BME280;2218;51.408;7.208;2023-02-18T12:35:48;100007.53;;;19.51;47.75
4410;BME280;2218;51.408;7.208;2023-02-18T12:38:43;100006.69;;;19.51;47.65
4410;BME280;2218;51.408;7.208;2023-02-18T12:41:42;100000.47;;;19.52;47.55
4410;BME280;2218;51.408;7.208;2023-02-18T12:44:32;100004.06;;;19.51;47.71
4410;BME280;2218;51.408;7.208;2023-02-18T12:47:30;100009.31;;;19.51;47.78
4410;BME280;2218;51.408;7.208;2023-02-18T12:50:43;100016.28;;;19.52;47.58
4410;BME280;2218;51.408;7.208;2023-02-18T12:53:40;100002.38;;;19.50;47.79
4410;BME280;2218;51.408;7.208;2023-02-18T12:56:36;100010.16;;;19.51;47.55
4410;BME280;2218;51.408;7.208;2023-02-18T12:59:24;100004.06;;;19.51;47.87
4410;BME280;2218;51.408;7.208;2023-02-18T13:02:07;100004.91;;;19.51;47.91
4410;BME280;2218;51.408;7.208;2023-02-18T13:04:53;100000.47;;;19.52;47.72
4410;BME280;2218;51.408;7.208;2023-02-18T13:07:56;100002.25;;;19.51;47.73
4410;BME280;2218;51.408;7.208;2023-02-18T13:10:55;99997.94;;;19.50;47.65
4410;BME280;2218;51.408;7.208;2023-02-18T13:13:30;99998.78;;;19.51;47.75
4410;BME280;2218;51.408;7.208;2023-02-18T13:16:03;99996.16;;;19.51;47.94
4410;BME280;2218;51.408;7.208;2023-02-18T13:18:37;99998.78;;;19.51;47.88
4410;BME280;2218;51.408;7.208;2023-02-18T13:21:10;99992.66;;;19.50;47.80
4410;BME280;2218;51.408;7.208;2023-02-18T13:23:49;99991.81;;;19.50;47.81
4410;BME280;2218;51.408;7.208;2023-02-18T13:26:18;100002.38;;;19.50;47.65
4410;BME280;2218;51.408;7.208;2023-02-18T13:28:57;99985.72;;;19.49;47.75
4410;BME280;2218;51.408;7.208;2023-02-18T13:31:42;99985.72;;;19.49;47.87
4410;BME280;2218;51.408;7.208;2023-02-18T13:34:22;99992.75;;;19.49;47.80
4410;BME280;2218;51.408;7.208;2023-02-18T13:37:04;99990.13;;;19.49;47.93
4410;BME280;2218;51.408;7.208;2023-02-18T13:39:33;99995.38;;;19.49;47.99
4410;BME280;2218;51.408;7.208;2023-02-18T13:42:32;99994.47;;;19.50;47.75
4410;BME280;2218;51.408;7.208;2023-02-18T13:45:30;99990.13;;;19.49;47.80
4410;BME280;2218;51.408;7.208;2023-02-18T13:47:59;99995.38;;;19.49;47.93
4410;BME280;2218;51.408;7.208;2023-02-18T13:50:41;99991.91;;;19.48;47.92
4410;BME280;2218;51.408;7.208;2023-02-18T13:53:35;99992.84;;;19.47;47.99
4410;BME280;2218;51.408;7.208;2023-02-18T13:56:06;99983.16;;;19.48;47.77